Stena Carrier — OWEE2 — position and weather

sailwx.info

Track history (hours):
 
Tides and Currents Weather Stations Pressure Air Temp Water Temp Dewpoint Dewpoint Depression Visibility Wind Speed Wind Dir Waves Ship Positions

Stena Carrier

Last reported at 2018-Jun-24 15:00 UTC. Time now 2018-Jun-24 15:02 UTC.
Position N 54°12' E 000°05'.

Length 183 m; draft 6.4 m.

Type: Ship (hazmat cat A). MMSI: 219020207.

Date/timePositionNaut miles runAvg speedWind from/ knotsBaromVisibWave heightAir tempDewpointWater temp
2018-Jun-24 15:00N 54°12' E 000°05'816.8
2018-Jun-24 14:31N 54°18' W 000°05'917.1
2018-Jun-24 14:00N 54°24' W 000°15'917.1
2018-Jun-24 13:30N 54°30' W 000°26'3 0.1
2018-Jun-23 12:30N 54°30' W 000°30'510.0
2018-Jun-23 12:00N 54°28' W 000°24'5 9.9
2018-Jun-23 11:30N 54°24' W 000°17'5 9.7
2018-Jun-23 11:00N 54°21' W 000°11'510.0
2018-Jun-23 10:31N 54°17' W 000°05'713.9
2018-Jun-23 10:01N 54°13' E 000°03'510.3
2018-Jun-23 09:31N 54°09' E 000°09'714.2
2018-Jun-23 09:00N 54°04' E 000°17'4117.9
2018-Jun-23 06:43N 53°31' E 000°59'416.5
2018-Jun-23 06:30N 53°27' E 001°01'816.0
2018-Jun-23 06:01N 53°21' E 001°09'815.3
2018-Jun-23 05:31N 53°15' E 001°17'714.8
2018-Jun-23 05:00N 53°10' E 001°25'714.4
2018-Jun-23 04:30N 53°04' E 001°33'713.9
2018-Jun-23 04:00N 52°60' E 001°42'714.0
2018-Jun-23 03:30N 52°56' E 001°53'714.0
2018-Jun-23 03:00N 52°53' E 002°02'714.3
2018-Jun-23 02:31N 52°47' E 002°10'815.2
2018-Jun-23 02:00N 52°41' E 002°18'815.5
2018-Jun-23 01:30N 52°36' E 002°27'816.1
2018-Jun-23 01:00N 52°30' E 002°36'816.3
2018-Jun-23 00:30N 52°24' E 002°45'816.0
2018-Jun-23 00:00N 52°20' E 002°57'815.8
2018-Jun-22 23:30N 52°17' E 003°08'815.8
2018-Jun-22 23:00N 52°13' E 003°20'815.6
2018-Jun-22 22:30N 52°09' E 003°31'815.4
2018-Jun-22 22:00N 52°06' E 003°42'714.4
2018-Jun-22 21:31N 52°03' E 003°53'612.5
2018-Jun-22 21:01N 51°60' E 004°01'5 9.9
2018-Jun-22 20:30N 51°57' E 004°08'0 0.0
2018-Jun-22 20:00N 51°57' E 004°08'0 0.0
2018-Jun-22 19:30N 51°57' E 004°08'0 0.0
2018-Jun-22 18:58N 51°57' E 004°08'0 0.0
2018-Jun-22 18:28N 51°57' E 004°08'0 0.0
2018-Jun-22 17:58N 51°57' E 004°08'0 0.0
2018-Jun-22 17:30N 51°57' E 004°08'0 0.0
2018-Jun-22 17:00N 51°57' E 004°08'0 0.0
2018-Jun-22 16:30N 51°57' E 004°08'0 0.0
2018-Jun-22 16:00N 51°57' E 004°08'0 0.0
2018-Jun-22 15:30N 51°57' E 004°08'0 0.0
2018-Jun-22 15:00N 51°57' E 004°08'0 0.0
2018-Jun-22 14:30N 51°57' E 004°08'0 0.0
2018-Jun-22 14:00N 51°57' E 004°08'0 0.1
2018-Jun-22 13:31N 51°57' E 004°08'1 2.0
2018-Jun-22 13:00N 51°58' E 004°07'815.3
2018-Jun-22 12:30N 52°01' E 003°56'713.7
2018-Jun-22 12:01N 52°02' E 003°45'917.2
2018-Jun-22 11:30N 52°06' E 003°32'917.6
2018-Jun-22 11:00N 52°11' E 003°20'6017.2
2018-Jun-22 07:31N 52°51' E 002°06'117.4
2018-Jun-22 07:28N 52°51' E 002°05'817.2
2018-Jun-22 07:00N 52°56' E 001°54'917.5
2018-Jun-22 06:30N 52°60' E 001°42'917.8
2018-Jun-22 06:01N 53°06' E 001°31'6518.0
2018-Jun-22 02:23N 53°58' E 000°26'718.3
2018-Jun-22 02:00N 54°04' E 000°18'918.3
2018-Jun-22 01:30N 54°10' E 000°08'918.6
2018-Jun-22 01:00N 54°17' W 000°04'918.9
2018-Jun-22 00:31N 54°23' W 000°15'1019.0
2018-Jun-22 00:01N 54°30' W 000°27'2 0.2
2018-Jun-21 12:36N 54°30' W 000°30'217.7
2018-Jun-21 12:30N 54°29' W 000°28'917.4
2018-Jun-21 12:00N 54°24' W 000°16'817.0
2018-Jun-21 11:30N 54°18' W 000°06'816.3
2018-Jun-21 11:00N 54°12' E 000°03'815.9
2018-Jun-21 10:30N 54°06' E 000°13'815.9
2018-Jun-21 10:00N 54°00' E 000°22'14114.4
2018-Jun-21 00:14N 52°18' E 003°04'315.6
2018-Jun-21 00:00N 52°17' E 003°09'815.9
2018-Jun-20 23:31N 52°13' E 003°20'815.9
2018-Jun-20 23:00N 52°09' E 003°32'715.5
2018-Jun-20 22:31N 52°05' E 003°42'714.6
2018-Jun-20 22:00N 52°03' E 003°54'5 9.5
2018-Jun-20 21:31N 52°00' E 004°00'611.0
2018-Jun-20 21:00N 51°57' E 004°08'0 0.9
2018-Jun-20 20:30N 51°57' E 004°08'0 0.0
2018-Jun-20 20:00N 51°57' E 004°08'0 0.0
2018-Jun-20 19:29N 51°57' E 004°08'0 0.0
2018-Jun-20 18:59N 51°57' E 004°08'0 0.0
2018-Jun-20 18:29N 51°57' E 004°08'0 0.0
2018-Jun-20 18:00N 51°57' E 004°08'0 0.0
2018-Jun-20 17:28N 51°57' E 004°08'0 0.0
2018-Jun-20 16:55N 51°57' E 004°08'0 0.0
2018-Jun-20 16:28N 51°57' E 004°08'0 0.0
2018-Jun-20 15:58N 51°57' E 004°08'0 0.0
2018-Jun-20 15:28N 51°57' E 004°08'0 0.0
2018-Jun-20 14:58N 51°57' E 004°08'0 0.0
2018-Jun-20 14:28N 51°57' E 004°08'0 0.0
2018-Jun-20 13:58N 51°57' E 004°08'1 1.5
2018-Jun-20 13:30N 51°58' E 004°08'4 7.6
2018-Jun-20 13:00N 51°59' E 004°02'815.5
2018-Jun-20 12:30N 52°00' E 003°50'5 9.8
2018-Jun-20 12:00N 52°03' E 003°43'611.6
2018-Jun-20 11:30N 52°06' E 003°35'611.8
2018-Jun-20 11:00N 52°09' E 003°27'611.8
2018-Jun-20 10:29N 52°11' E 003°18'611.6
2018-Jun-20 09:58N 52°14' E 003°09'511.7
2018-Jun-20 09:30N 52°17' E 003°02'611.6
2018-Jun-20 08:58N 52°21' E 002°53'1311.7
2018-Jun-20 07:51N 52°30' E 002°37'3714.2
2018-Jun-20 05:15N 52°56' E 001°55'715.2
2018-Jun-20 04:48N 52°59' E 001°45'7815.7
2018-Jun-19 23:49N 54°00' E 000°23'516.8
2018-Jun-19 23:30N 54°04' E 000°17'917.1
2018-Jun-19 23:00N 54°11' E 000°08'917.4
2018-Jun-19 22:31N 54°17' W 000°03'917.5
2018-Jun-19 22:00N 54°23' W 000°14'917.7
2018-Jun-19 21:31N 54°29' W 000°25'4 0.3
2018-Jun-19 10:12N 54°31' W 000°30'315.2
2018-Jun-19 10:01N 54°29' W 000°26'815.0
2018-Jun-19 09:30N 54°24' W 000°17'714.9
2018-Jun-19 09:00N 54°19' W 000°08'714.4
2018-Jun-19 08:30N 54°14' E 000°01'714.2
2018-Jun-19 08:00N 54°09' E 000°09'714.4
2018-Jun-19 07:30N 54°03' E 000°17'914.6
2018-Jun-19 06:54N 53°56' E 000°26'4115.7
2018-Jun-19 04:17N 53°23' E 001°07'517.1
2018-Jun-19 04:00N 53°19' E 001°11'816.8
2018-Jun-19 03:30N 53°13' E 001°21'816.1
2018-Jun-19 03:00N 53°07' E 001°30'815.5
2018-Jun-19 02:30N 53°02' E 001°40'815.1
2018-Jun-19 02:00N 52°58' E 001°50'714.3
2018-Jun-19 01:30N 52°54' E 002°01'714.1
2018-Jun-19 01:00N 52°49' E 002°09'713.3
2018-Jun-19 00:30N 52°43' E 002°15'5014.5
2018-Jun-18 21:01N 52°12' E 003°20'012.8
2018-Jun-18 21:00N 52°12' E 003°20'815.2
2018-Jun-18 20:29N 52°09' E 003°31'715.1
2018-Jun-18 20:00N 52°05' E 003°42'714.3
2018-Jun-18 19:30N 52°02' E 003°53'5 9.1
2018-Jun-18 19:01N 52°01' E 003°60'612.1
2018-Jun-18 18:31N 51°58' E 004°08'1 1.3
2018-Jun-18 18:01N 51°57' E 004°08'0 0.0
2018-Jun-18 17:30N 51°57' E 004°08'0 0.0
2018-Jun-18 16:58N 51°57' E 004°08'0 0.0
2018-Jun-18 16:31N 51°57' E 004°08'0 0.0
2018-Jun-18 15:58N 51°57' E 004°08'0 0.0
2018-Jun-18 15:28N 51°57' E 004°08'0 0.0
2018-Jun-18 14:58N 51°57' E 004°08'0 0.0
2018-Jun-18 14:28N 51°57' E 004°08'0 0.0
2018-Jun-18 13:58N 51°57' E 004°08'0 0.0
2018-Jun-18 13:28N 51°57' E 004°08'0 0.0
2018-Jun-18 12:58N 51°57' E 004°08'0 0.0
2018-Jun-18 12:28N 51°57' E 004°08'0 0.0
2018-Jun-18 11:58N 51°57' E 004°08'0 0.0
2018-Jun-18 11:25N 51°57' E 004°08'0 0.0
2018-Jun-18 11:01N 51°57' E 004°08'0 0.0
2018-Jun-18 10:28N 51°57' E 004°08'0 0.0
2018-Jun-18 09:58N 51°57' E 004°08'0 0.0
2018-Jun-18 09:28N 51°57' E 004°08'0 0.0
2018-Jun-18 08:58N 51°57' E 004°08'0 0.0
2018-Jun-18 08:28N 51°57' E 004°08'0 0.0
2018-Jun-18 07:55N 51°57' E 004°08'0 0.0
2018-Jun-18 07:28N 51°57' E 004°08'0 0.0
2018-Jun-18 06:58N 51°57' E 004°08'0 0.0
2018-Jun-18 06:28N 51°57' E 004°08'0 0.0
2018-Jun-18 05:58N 51°57' E 004°08'0 0.0
2018-Jun-18 05:28N 51°57' E 004°08'0 0.3
2018-Jun-18 05:00N 51°57' E 004°08'1 2.2
2018-Jun-18 04:30N 51°58' E 004°07'714.5
2018-Jun-18 04:00N 52°01' E 003°56'510.3
2018-Jun-18 03:30N 52°01' E 003°47'612.6
2018-Jun-18 03:00N 52°04' E 003°39'714.5
2018-Jun-18 02:30N 52°08' E 003°28'814.6
2018-Jun-18 01:59N 52°11' E 003°18'6315.1
2018-Jun-17 21:47N 52°54' E 002°00'416.5
2018-Jun-17 21:30N 52°56' E 001°54'816.6
2018-Jun-17 21:00N 53°00' E 001°42'815.8
2018-Jun-17 20:30N 53°05' E 001°32'815.6
2018-Jun-17 20:00N 53°11' E 001°23'816.3
2018-Jun-17 19:30N 53°17' E 001°14'5017.2
2018-Jun-17 16:38N 53°58' E 000°26'217.1
2018-Jun-17 16:30N 53°59' E 000°24'817.0
2018-Jun-17 16:00N 54°06' E 000°15'916.6
2018-Jun-17 15:29N 54°12' E 000°05'816.3
2018-Jun-17 15:00N 54°18' W 000°05'816.2
2018-Jun-17 14:30N 54°23' W 000°15'816.0
2018-Jun-17 14:00N 54°29' W 000°25'4 0.2
2018-Jun-16 11:05N 54°32' W 000°30'114.7
2018-Jun-16 10:59N 54°31' W 000°28'714.4
2018-Jun-16 10:30N 54°26' W 000°20'714.2
2018-Jun-16 10:00N 54°21' W 000°11'713.7
2018-Jun-16 09:30N 54°16' W 000°03'815.3
2018-Jun-16 09:00N 54°11' E 000°06'816.2
2018-Jun-16 08:30N 54°05' E 000°16'815.8
2018-Jun-16 08:00N 53°59' E 000°24'815.6
2018-Jun-16 07:30N 53°53' E 000°33'1514.8
2018-Jun-16 06:31N 53°41' E 000°48'014.9
2018-Jun-16 06:29N 53°41' E 000°49'714.6
2018-Jun-16 06:00N 53°35' E 000°55'714.7
2018-Jun-16 05:30N 53°29' E 001°00'815.3
2018-Jun-16 05:00N 53°22' E 001°08'816.6
2018-Jun-16 04:30N 53°16' E 001°16'917.8
2018-Jun-16 04:00N 53°09' E 001°25'918.7
2018-Jun-16 03:30N 53°02' E 001°36'918.7
2018-Jun-16 03:00N 52°57' E 001°49'918.6
2018-Jun-16 02:30N 52°52' E 002°02'918.5
2018-Jun-16 02:00N 52°45' E 002°12'917.4
2018-Jun-16 01:30N 52°39' E 002°22'816.7
2018-Jun-16 01:00N 52°33' E 002°31'816.4
2018-Jun-16 00:30N 52°27' E 002°40'816.1
2018-Jun-16 00:00N 52°22' E 002°51'816.5
2018-Jun-15 23:30N 52°18' E 003°03'816.5
2018-Jun-15 23:00N 52°14' E 003°15'816.7
2018-Jun-15 22:30N 52°10' E 003°27'816.7
2018-Jun-15 22:00N 52°06' E 003°39'816.7
2018-Jun-15 21:30N 52°03' E 003°51'612.3
2018-Jun-15 21:00N 52°01' E 004°00'611.1
2018-Jun-15 20:31N 51°57' E 004°08'0 0.5
2018-Jun-15 20:00N 51°57' E 004°08'0 0.0
2018-Jun-15 19:30N 51°57' E 004°08'0 0.0
2018-Jun-15 19:00N 51°57' E 004°08'0 0.0
2018-Jun-15 18:30N 51°57' E 004°08'0 0.0
2018-Jun-15 18:00N 51°57' E 004°08'0 0.0
2018-Jun-15 17:30N 51°57' E 004°08'0 0.0
2018-Jun-15 17:00N 51°57' E 004°08'0 0.0
2018-Jun-15 16:30N 51°57' E 004°08'0 0.0
2018-Jun-15 16:00N 51°57' E 004°08'0 0.0
2018-Jun-15 15:30N 51°57' E 004°08'0 0.0
2018-Jun-15 15:00N 51°57' E 004°08'0 0.0
2018-Jun-15 14:30N 51°57' E 004°08'0 0.0
2018-Jun-15 14:00N 51°57' E 004°08'0 0.0
2018-Jun-15 13:30N 51°57' E 004°08'1 1.2
2018-Jun-15 13:00N 51°58' E 004°08'511.0
2018-Jun-15 12:30N 51°60' E 003°60'815.8
2018-Jun-15 12:01N 52°01' E 003°47'713.9
2018-Jun-15 11:30N 52°05' E 003°38'816.2
2018-Jun-15 11:00N 52°08' E 003°26'816.1
2018-Jun-15 10:30N 52°11' E 003°14'816.4
2018-Jun-15 10:00N 52°17' E 003°04'816.4
2018-Jun-15 09:31N 52°21' E 002°52'1015.8
2018-Jun-15 08:53N 52°27' E 002°39'3518.5
2018-Jun-15 06:59N 52°53' E 002°01'918.4
2018-Jun-15 06:30N 52°58' E 001°49'917.9
2018-Jun-15 06:01N 53°03' E 001°36'917.3
2018-Jun-15 05:30N 53°09' E 001°26'917.3
2018-Jun-15 05:00N 53°15' E 001°17'917.2
2018-Jun-15 04:30N 53°22' E 001°08'4417.3
2018-Jun-15 01:55N 53°59' E 000°25'716.5
2018-Jun-15 01:30N 54°04' E 000°17'816.3
2018-Jun-15 01:00N 54°10' E 000°08'815.8
2018-Jun-15 00:30N 54°16' W 000°01'815.5
2018-Jun-15 00:00N 54°21' W 000°11'815.3
2018-Jun-14 23:30N 54°27' W 000°20'815.2
2018-Jun-14 23:00N 54°32' W 000°29'  
Track history (hours):
 
Tides and Currents Weather Stations Pressure Air Temp Water Temp Dewpoint Dewpoint Depression Visibility Wind Speed Wind Dir Waves Ship Positions

Stena Carrier

Last reported at 2018-Jun-24 15:00 UTC. Time now 2018-Jun-24 15:02 UTC.
Position N 54°12' E 000°05'.

Length 183 m; draft 6.4 m.

Type: Ship (hazmat cat A). MMSI: 219020207.

Date/timePositionNaut miles runAvg speedWind from/ knotsBaromVisibWave heightAir tempDewpointWater temp
2018-Jun-24 15:00N 54°12' E 000°05'816.8
2018-Jun-24 14:31N 54°18' W 000°05'917.1
2018-Jun-24 14:00N 54°24' W 000°15'917.1
2018-Jun-24 13:30N 54°30' W 000°26'3 0.1
2018-Jun-23 12:30N 54°30' W 000°30'510.0
2018-Jun-23 12:00N 54°28' W 000°24'5 9.9
2018-Jun-23 11:30N 54°24' W 000°17'5 9.7
2018-Jun-23 11:00N 54°21' W 000°11'510.0
2018-Jun-23 10:31N 54°17' W 000°05'713.9
2018-Jun-23 10:01N 54°13' E 000°03'510.3
2018-Jun-23 09:31N 54°09' E 000°09'714.2
2018-Jun-23 09:00N 54°04' E 000°17'4117.9
2018-Jun-23 06:43N 53°31' E 000°59'416.5
2018-Jun-23 06:30N 53°27' E 001°01'816.0
2018-Jun-23 06:01N 53°21' E 001°09'815.3
2018-Jun-23 05:31N 53°15' E 001°17'714.8
2018-Jun-23 05:00N 53°10' E 001°25'714.4
2018-Jun-23 04:30N 53°04' E 001°33'713.9
2018-Jun-23 04:00N 52°60' E 001°42'714.0
2018-Jun-23 03:30N 52°56' E 001°53'714.0
2018-Jun-23 03:00N 52°53' E 002°02'714.3
2018-Jun-23 02:31N 52°47' E 002°10'815.2
2018-Jun-23 02:00N 52°41' E 002°18'815.5
2018-Jun-23 01:30N 52°36' E 002°27'816.1
2018-Jun-23 01:00N 52°30' E 002°36'816.3
2018-Jun-23 00:30N 52°24' E 002°45'816.0
2018-Jun-23 00:00N 52°20' E 002°57'815.8
2018-Jun-22 23:30N 52°17' E 003°08'815.8
2018-Jun-22 23:00N 52°13' E 003°20'815.6
2018-Jun-22 22:30N 52°09' E 003°31'815.4
2018-Jun-22 22:00N 52°06' E 003°42'714.4
2018-Jun-22 21:31N 52°03' E 003°53'612.5
2018-Jun-22 21:01N 51°60' E 004°01'5 9.9
2018-Jun-22 20:30N 51°57' E 004°08'0 0.0
2018-Jun-22 20:00N 51°57' E 004°08'0 0.0
2018-Jun-22 19:30N 51°57' E 004°08'0 0.0
2018-Jun-22 18:58N 51°57' E 004°08'0 0.0
2018-Jun-22 18:28N 51°57' E 004°08'0 0.0
2018-Jun-22 17:58N 51°57' E 004°08'0 0.0
2018-Jun-22 17:30N 51°57' E 004°08'0 0.0
2018-Jun-22 17:00N 51°57' E 004°08'0 0.0
2018-Jun-22 16:30N 51°57' E 004°08'0 0.0
2018-Jun-22 16:00N 51°57' E 004°08'0 0.0
2018-Jun-22 15:30N 51°57' E 004°08'0 0.0
2018-Jun-22 15:00N 51°57' E 004°08'0 0.0
2018-Jun-22 14:30N 51°57' E 004°08'0 0.0
2018-Jun-22 14:00N 51°57' E 004°08'0 0.1
2018-Jun-22 13:31N 51°57' E 004°08'1 2.0
2018-Jun-22 13:00N 51°58' E 004°07'815.3
2018-Jun-22 12:30N 52°01' E 003°56'713.7
2018-Jun-22 12:01N 52°02' E 003°45'917.2
2018-Jun-22 11:30N 52°06' E 003°32'917.6
2018-Jun-22 11:00N 52°11' E 003°20'6017.2
2018-Jun-22 07:31N 52°51' E 002°06'117.4
2018-Jun-22 07:28N 52°51' E 002°05'817.2
2018-Jun-22 07:00N 52°56' E 001°54'917.5
2018-Jun-22 06:30N 52°60' E 001°42'917.8
2018-Jun-22 06:01N 53°06' E 001°31'6518.0
2018-Jun-22 02:23N 53°58' E 000°26'718.3
2018-Jun-22 02:00N 54°04' E 000°18'918.3
2018-Jun-22 01:30N 54°10' E 000°08'918.6
2018-Jun-22 01:00N 54°17' W 000°04'918.9
2018-Jun-22 00:31N 54°23' W 000°15'1019.0
2018-Jun-22 00:01N 54°30' W 000°27'2 0.2
2018-Jun-21 12:36N 54°30' W 000°30'217.7
2018-Jun-21 12:30N 54°29' W 000°28'917.4
2018-Jun-21 12:00N 54°24' W 000°16'817.0
2018-Jun-21 11:30N 54°18' W 000°06'816.3
2018-Jun-21 11:00N 54°12' E 000°03'815.9
2018-Jun-21 10:30N 54°06' E 000°13'815.9
2018-Jun-21 10:00N 54°00' E 000°22'14114.4
2018-Jun-21 00:14N 52°18' E 003°04'315.6
2018-Jun-21 00:00N 52°17' E 003°09'815.9
2018-Jun-20 23:31N 52°13' E 003°20'815.9
2018-Jun-20 23:00N 52°09' E 003°32'715.5
2018-Jun-20 22:31N 52°05' E 003°42'714.6
2018-Jun-20 22:00N 52°03' E 003°54'5 9.5
2018-Jun-20 21:31N 52°00' E 004°00'611.0
2018-Jun-20 21:00N 51°57' E 004°08'0 0.9
2018-Jun-20 20:30N 51°57' E 004°08'0 0.0
2018-Jun-20 20:00N 51°57' E 004°08'0 0.0
2018-Jun-20 19:29N 51°57' E 004°08'0 0.0
2018-Jun-20 18:59N 51°57' E 004°08'0 0.0
2018-Jun-20 18:29N 51°57' E 004°08'0 0.0
2018-Jun-20 18:00N 51°57' E 004°08'0 0.0
2018-Jun-20 17:28N 51°57' E 004°08'0 0.0
2018-Jun-20 16:55N 51°57' E 004°08'0 0.0
2018-Jun-20 16:28N 51°57' E 004°08'0 0.0
2018-Jun-20 15:58N 51°57' E 004°08'0 0.0
2018-Jun-20 15:28N 51°57' E 004°08'0 0.0
2018-Jun-20 14:58N 51°57' E 004°08'0 0.0
2018-Jun-20 14:28N 51°57' E 004°08'0 0.0
2018-Jun-20 13:58N 51°57' E 004°08'1 1.5
2018-Jun-20 13:30N 51°58' E 004°08'4 7.6
2018-Jun-20 13:00N 51°59' E 004°02'815.5
2018-Jun-20 12:30N 52°00' E 003°50'5 9.8
2018-Jun-20 12:00N 52°03' E 003°43'611.6
2018-Jun-20 11:30N 52°06' E 003°35'611.8
2018-Jun-20 11:00N 52°09' E 003°27'611.8
2018-Jun-20 10:29N 52°11' E 003°18'611.6
2018-Jun-20 09:58N 52°14' E 003°09'511.7
2018-Jun-20 09:30N 52°17' E 003°02'611.6
2018-Jun-20 08:58N 52°21' E 002°53'1311.7
2018-Jun-20 07:51N 52°30' E 002°37'3714.2
2018-Jun-20 05:15N 52°56' E 001°55'715.2
2018-Jun-20 04:48N 52°59' E 001°45'7815.7
2018-Jun-19 23:49N 54°00' E 000°23'516.8
2018-Jun-19 23:30N 54°04' E 000°17'917.1
2018-Jun-19 23:00N 54°11' E 000°08'917.4
2018-Jun-19 22:31N 54°17' W 000°03'917.5
2018-Jun-19 22:00N 54°23' W 000°14'917.7
2018-Jun-19 21:31N 54°29' W 000°25'4 0.3
2018-Jun-19 10:12N 54°31' W 000°30'315.2
2018-Jun-19 10:01N 54°29' W 000°26'815.0
2018-Jun-19 09:30N 54°24' W 000°17'714.9
2018-Jun-19 09:00N 54°19' W 000°08'714.4
2018-Jun-19 08:30N 54°14' E 000°01'714.2
2018-Jun-19 08:00N 54°09' E 000°09'714.4
2018-Jun-19 07:30N 54°03' E 000°17'914.6
2018-Jun-19 06:54N 53°56' E 000°26'4115.7
2018-Jun-19 04:17N 53°23' E 001°07'517.1
2018-Jun-19 04:00N 53°19' E 001°11'816.8
2018-Jun-19 03:30N 53°13' E 001°21'816.1
2018-Jun-19 03:00N 53°07' E 001°30'815.5
2018-Jun-19 02:30N 53°02' E 001°40'815.1
2018-Jun-19 02:00N 52°58' E 001°50'714.3
2018-Jun-19 01:30N 52°54' E 002°01'714.1
2018-Jun-19 01:00N 52°49' E 002°09'713.3
2018-Jun-19 00:30N 52°43' E 002°15'5014.5
2018-Jun-18 21:01N 52°12' E 003°20'012.8
2018-Jun-18 21:00N 52°12' E 003°20'815.2
2018-Jun-18 20:29N 52°09' E 003°31'715.1
2018-Jun-18 20:00N 52°05' E 003°42'714.3
2018-Jun-18 19:30N 52°02' E 003°53'5 9.1
2018-Jun-18 19:01N 52°01' E 003°60'612.1
2018-Jun-18 18:31N 51°58' E 004°08'1 1.3
2018-Jun-18 18:01N 51°57' E 004°08'0 0.0
2018-Jun-18 17:30N 51°57' E 004°08'0 0.0
2018-Jun-18 16:58N 51°57' E 004°08'0 0.0
2018-Jun-18 16:31N 51°57' E 004°08'0 0.0
2018-Jun-18 15:58N 51°57' E 004°08'0 0.0
2018-Jun-18 15:28N 51°57' E 004°08'0 0.0
2018-Jun-18 14:58N 51°57' E 004°08'0 0.0
2018-Jun-18 14:28N 51°57' E 004°08'0 0.0
2018-Jun-18 13:58N 51°57' E 004°08'0 0.0
2018-Jun-18 13:28N 51°57' E 004°08'0 0.0
2018-Jun-18 12:58N 51°57' E 004°08'0 0.0
2018-Jun-18 12:28N 51°57' E 004°08'0 0.0
2018-Jun-18 11:58N 51°57' E 004°08'0 0.0
2018-Jun-18 11:25N 51°57' E 004°08'0 0.0
2018-Jun-18 11:01N 51°57' E 004°08'0 0.0
2018-Jun-18 10:28N 51°57' E 004°08'0 0.0
2018-Jun-18 09:58N 51°57' E 004°08'0 0.0
2018-Jun-18 09:28N 51°57' E 004°08'0 0.0
2018-Jun-18 08:58N 51°57' E 004°08'0 0.0
2018-Jun-18 08:28N 51°57' E 004°08'0 0.0
2018-Jun-18 07:55N 51°57' E 004°08'0 0.0
2018-Jun-18 07:28N 51°57' E 004°08'0 0.0
2018-Jun-18 06:58N 51°57' E 004°08'0 0.0
2018-Jun-18 06:28N 51°57' E 004°08'0 0.0
2018-Jun-18 05:58N 51°57' E 004°08'0 0.0
2018-Jun-18 05:28N 51°57' E 004°08'0 0.3
2018-Jun-18 05:00N 51°57' E 004°08'1 2.2
2018-Jun-18 04:30N 51°58' E 004°07'714.5
2018-Jun-18 04:00N 52°01' E 003°56'510.3
2018-Jun-18 03:30N 52°01' E 003°47'612.6
2018-Jun-18 03:00N 52°04' E 003°39'714.5
2018-Jun-18 02:30N 52°08' E 003°28'814.6
2018-Jun-18 01:59N 52°11' E 003°18'6315.1
2018-Jun-17 21:47N 52°54' E 002°00'416.5
2018-Jun-17 21:30N 52°56' E 001°54'816.6
2018-Jun-17 21:00N 53°00' E 001°42'815.8
2018-Jun-17 20:30N 53°05' E 001°32'815.6
2018-Jun-17 20:00N 53°11' E 001°23'816.3
2018-Jun-17 19:30N 53°17' E 001°14'5017.2
2018-Jun-17 16:38N 53°58' E 000°26'217.1
2018-Jun-17 16:30N 53°59' E 000°24'817.0
2018-Jun-17 16:00N 54°06' E 000°15'916.6
2018-Jun-17 15:29N 54°12' E 000°05'816.3
2018-Jun-17 15:00N 54°18' W 000°05'816.2
2018-Jun-17 14:30N 54°23' W 000°15'816.0
2018-Jun-17 14:00N 54°29' W 000°25'4 0.2
2018-Jun-16 11:05N 54°32' W 000°30'114.7
2018-Jun-16 10:59N 54°31' W 000°28'714.4
2018-Jun-16 10:30N 54°26' W 000°20'714.2
2018-Jun-16 10:00N 54°21' W 000°11'713.7
2018-Jun-16 09:30N 54°16' W 000°03'815.3
2018-Jun-16 09:00N 54°11' E 000°06'816.2
2018-Jun-16 08:30N 54°05' E 000°16'815.8
2018-Jun-16 08:00N 53°59' E 000°24'815.6
2018-Jun-16 07:30N 53°53' E 000°33'1514.8
2018-Jun-16 06:31N 53°41' E 000°48'014.9
2018-Jun-16 06:29N 53°41' E 000°49'714.6
2018-Jun-16 06:00N 53°35' E 000°55'714.7
2018-Jun-16 05:30N 53°29' E 001°00'815.3
2018-Jun-16 05:00N 53°22' E 001°08'816.6
2018-Jun-16 04:30N 53°16' E 001°16'917.8
2018-Jun-16 04:00N 53°09' E 001°25'918.7
2018-Jun-16 03:30N 53°02' E 001°36'918.7
2018-Jun-16 03:00N 52°57' E 001°49'918.6
2018-Jun-16 02:30N 52°52' E 002°02'918.5
2018-Jun-16 02:00N 52°45' E 002°12'917.4
2018-Jun-16 01:30N 52°39' E 002°22'816.7
2018-Jun-16 01:00N 52°33' E 002°31'816.4
2018-Jun-16 00:30N 52°27' E 002°40'816.1
2018-Jun-16 00:00N 52°22' E 002°51'816.5
2018-Jun-15 23:30N 52°18' E 003°03'816.5
2018-Jun-15 23:00N 52°14' E 003°15'816.7
2018-Jun-15 22:30N 52°10' E 003°27'816.7
2018-Jun-15 22:00N 52°06' E 003°39'816.7
2018-Jun-15 21:30N 52°03' E 003°51'612.3
2018-Jun-15 21:00N 52°01' E 004°00'611.1
2018-Jun-15 20:31N 51°57' E 004°08'0 0.5
2018-Jun-15 20:00N 51°57' E 004°08'0 0.0
2018-Jun-15 19:30N 51°57' E 004°08'0 0.0
2018-Jun-15 19:00N 51°57' E 004°08'0 0.0
2018-Jun-15 18:30N 51°57' E 004°08'0 0.0
2018-Jun-15 18:00N 51°57' E 004°08'0 0.0
2018-Jun-15 17:30N 51°57' E 004°08'0 0.0
2018-Jun-15 17:00N 51°57' E 004°08'0 0.0
2018-Jun-15 16:30N 51°57' E 004°08'0 0.0
2018-Jun-15 16:00N 51°57' E 004°08'0 0.0
2018-Jun-15 15:30N 51°57' E 004°08'0 0.0
2018-Jun-15 15:00N 51°57' E 004°08'0 0.0
2018-Jun-15 14:30N 51°57' E 004°08'0 0.0
2018-Jun-15 14:00N 51°57' E 004°08'0 0.0
2018-Jun-15 13:30N 51°57' E 004°08'1 1.2
2018-Jun-15 13:00N 51°58' E 004°08'511.0
2018-Jun-15 12:30N 51°60' E 003°60'815.8
2018-Jun-15 12:01N 52°01' E 003°47'713.9
2018-Jun-15 11:30N 52°05' E 003°38'816.2
2018-Jun-15 11:00N 52°08' E 003°26'816.1
2018-Jun-15 10:30N 52°11' E 003°14'816.4
2018-Jun-15 10:00N 52°17' E 003°04'816.4
2018-Jun-15 09:31N 52°21' E 002°52'1015.8
2018-Jun-15 08:53N 52°27' E 002°39'3518.5
2018-Jun-15 06:59N 52°53' E 002°01'918.4
2018-Jun-15 06:30N 52°58' E 001°49'917.9
2018-Jun-15 06:01N 53°03' E 001°36'917.3
2018-Jun-15 05:30N 53°09' E 001°26'917.3
2018-Jun-15 05:00N 53°15' E 001°17'917.2
2018-Jun-15 04:30N 53°22' E 001°08'4417.3
2018-Jun-15 01:55N 53°59' E 000°25'716.5
2018-Jun-15 01:30N 54°04' E 000°17'816.3
2018-Jun-15 01:00N 54°10' E 000°08'815.8
2018-Jun-15 00:30N 54°16' W 000°01'815.5
2018-Jun-15 00:00N 54°21' W 000°11'815.3
2018-Jun-14 23:30N 54°27' W 000°20'815.2
2018-Jun-14 23:00N 54°32' W 000°29'  

Dump ship's entire track history